Time;durP1;ratioP1;P1;durP2;ratioP2;P2;SDS_P1;SDS_P2;PMS_P1;PMS_P2;Temp;Humidity;BMP_temperature;BMP_pressure;BME280_temperature;BME280_humidity;BME280_pressure;Samples;Min_cycle;Max_cycle;Signal;HPM_P1;HPM_P2
2021/08/05 00:01:37;;;;;;;6.75;3.20;;;;;;;;;;6301570;22;19999;-43
2021/08/05 00:04:03;;;;;;;9.88;3.50;;;;;;;;;;6300713;22;20084;-41
2021/08/05 00:06:28;;;;;;;12.50;4.00;;;;;;;;;;6300748;22;20037;-42
2021/08/05 00:08:53;;;;;;;4.93;3.63;;;;;;;;;;6300800;22;19999;-42
2021/08/05 00:11:19;;;;;;;7.07;3.25;;;;;;;;;;6301328;22;19999;-41
2021/08/05 00:13:44;;;;;;;7.28;3.33;;;;;;;;;;6301573;22;20302;-42
2021/08/05 00:16:09;;;;;;;5.05;4.00;;;;;;;;;;6301217;22;19995;-42
2021/08/05 00:18:35;;;;;;;8.57;3.33;;;;;;;;;;6301258;22;20325;-42
2021/08/05 00:21:00;;;;;;;4.25;2.67;;;;;;;;;;6301022;22;20019;-46
2021/08/05 00:23:26;;;;;;;4.65;3.40;;;;;;;;;;6300835;22;20413;-43
2021/08/05 00:25:51;;;;;;;3.10;2.17;;;;;;;;;;6301050;22;19991;-41
2021/08/05 00:28:16;;;;;;;5.63;2.72;;;;;;;;;;6301318;22;20045;-43
2021/08/05 00:30:42;;;;;;;12.07;2.05;;;;;;;;;;6300598;22;20029;-41
2021/08/05 00:33:07;;;;;;;3.40;1.88;;;;;;;;;;6300654;22;20027;-44
2021/08/05 00:35:32;;;;;;;7.85;2.35;;;;;;;;;;6301316;22;20175;-40
2021/08/05 00:37:57;;;;;;;4.22;1.73;;;;;;;;;;6300906;22;20177;-40
2021/08/05 00:40:23;;;;;;;4.97;2.97;;;;;;;;;;6300669;22;19996;-41
2021/08/05 00:42:49;;;;;;;4.03;1.80;;;;;;;;;;6301025;22;20019;-42
2021/08/05 00:45:15;;;;;;;4.65;3.05;;;;;;;;;;6300509;22;19999;-41
2021/08/05 00:47:40;;;;;;;3.08;1.88;;;;;;;;;;6301398;22;20030;-41
2021/08/05 00:50:06;;;;;;;4.05;1.85;;;;;;;;;;6300655;22;20312;-40
2021/08/05 00:52:31;;;;;;;4.88;2.42;;;;;;;;;;6300965;22;20053;-41
2021/08/05 00:54:56;;;;;;;3.25;2.33;;;;;;;;;;6301622;22;19999;-41
2021/08/05 00:57:22;;;;;;;4.38;2.85;;;;;;;;;;6301219;22;20329;-42
2021/08/05 00:59:47;;;;;;;4.72;2.90;;;;;;;;;;6302623;22;20550;-40
2021/08/05 01:02:16;;;;;;;8.10;2.17;;;;;;;;;;6303076;22;20332;-41
2021/08/05 01:04:41;;;;;;;5.35;3.63;;;;;;;;;;6302852;22;20447;-40
2021/08/05 01:07:14;;;;;;;9.70;3.80;;;;;;;;;;6303064;22;19996;-41
2021/08/05 01:09:58;;;;;;;5.22;2.33;;;;;;;;;;6302636;22;19995;-40
2021/08/05 01:12:42;;;;;;;3.65;2.33;;;;;;;;;;6302601;22;20420;-40
2021/08/05 01:15:14;;;;;;;5.55;2.58;;;;;;;;;;6302746;22;20000;-40
2021/08/05 01:17:41;;;;;;;9.02;2.85;;;;;;;;;;6303256;22;20041;-45
2021/08/05 01:20:09;;;;;;;3.88;2.03;;;;;;;;;;6302778;22;20066;-46
2021/08/05 01:22:39;;;;;;;5.60;2.28;;;;;;;;;;6302570;22;19999;-45
2021/08/05 01:25:23;;;;;;;2.95;1.95;;;;;;;;;;6302899;22;20006;-46
2021/08/05 01:27:48;;;;;;;3.63;2.58;;;;;;;;;;6302549;22;20428;-45
2021/08/05 01:30:13;;;;;;;3.92;2.58;;;;;;;;;;6302301;22;20000;-46
2021/08/05 01:32:39;;;;;;;7.75;2.88;;;;;;;;;;6302619;22;20030;-44
2021/08/05 01:35:05;;;;;;;8.25;2.83;;;;;;;;;;6302447;22;20052;-46
2021/08/05 01:37:30;;;;;;;6.65;2.72;;;;;;;;;;6302376;22;20002;-42
2021/08/05 01:39:56;;;;;;;2.50;1.83;;;;;;;;;;6302248;22;20001;-44
2021/08/05 01:42:21;;;;;;;6.25;3.88;;;;;;;;;;6302577;22;20030;-42
2021/08/05 01:44:49;;;;;;;4.50;2.15;;;;;;;;;;6302295;22;20168;-41
2021/08/05 01:47:15;;;;;;;5.38;2.85;;;;;;;;;;6302948;22;20003;-41
2021/08/05 01:49:41;;;;;;;5.40;2.13;;;;;;;;;;6302390;22;20305;-41
2021/08/05 01:52:07;;;;;;;4.13;2.50;;;;;;;;;;6302045;22;20003;-41
2021/08/05 01:54:33;;;;;;;8.80;3.15;;;;;;;;;;6302184;22;20018;-41
2021/08/05 01:56:58;;;;;;;6.22;3.03;;;;;;;;;;6302454;22;20066;-47
2021/08/05 01:59:23;;;;;;;10.02;3.08;;;;;;;;;;6302491;22;20187;-47
2021/08/05 02:01:48;;;;;;;8.93;3.72;;;;;;;;;;6302946;22;20086;-45
2021/08/05 02:04:16;;;;;;;3.60;2.55;;;;;;;;;;6302295;22;20039;-46
2021/08/05 02:06:54;;;;;;;8.38;3.95;;;;;;;;;;6302410;22;20005;-41
2021/08/05 02:09:23;;;;;;;9.30;3.85;;;;;;;;;;6301794;22;20007;-43
2021/08/05 02:11:50;;;;;;;10.18;4.53;;;;;;;;;;6302414;22;20105;-43
2021/08/05 02:14:16;;;;;;;13.48;4.15;;;;;;;;;;6302388;22;19987;-45
2021/08/05 02:16:45;;;;;;;5.22;3.65;;;;;;;;;;6302548;22;20045;-41
2021/08/05 02:19:10;;;;;;;8.15;3.53;;;;;;;;;;6301569;22;20003;-46
2021/08/05 02:21:36;;;;;;;6.82;3.38;;;;;;;;;;6301706;22;20160;-43
2021/08/05 02:24:02;;;;;;;6.90;3.67;;;;;;;;;;6301941;22;20082;-45
2021/08/05 02:26:28;;;;;;;6.65;3.50;;;;;;;;;;6301885;22;20387;-41
2021/08/05 02:28:54;;;;;;;11.60;4.00;;;;;;;;;;6301752;22;20007;-40
2021/08/05 02:31:20;;;;;;;5.53;4.30;;;;;;;;;;6301907;22;20026;-41
2021/08/05 02:33:46;;;;;;;15.75;5.55;;;;;;;;;;6301774;22;20003;-41
2021/08/05 02:36:11;;;;;;;6.03;2.88;;;;;;;;;;6302046;22;20003;-42
2021/08/05 02:38:37;;;;;;;7.13;3.90;;;;;;;;;;6301834;22;20420;-41
2021/08/05 02:41:03;;;;;;;6.47;3.35;;;;;;;;;;6301647;22;19991;-41
2021/08/05 02:43:31;;;;;;;6.72;4.68;;;;;;;;;;6302230;22;20002;-45
2021/08/05 02:45:57;;;;;;;6.30;4.38;;;;;;;;;;6301796;22;19995;-43
2021/08/05 02:48:22;;;;;;;5.75;4.10;;;;;;;;;;6302138;22;19988;-45
2021/08/05 02:50:48;;;;;;;9.40;5.20;;;;;;;;;;6301375;22;20011;-41
2021/08/05 02:53:14;;;;;;;5.90;3.72;;;;;;;;;;6301910;22;19995;-47
2021/08/05 02:55:41;;;;;;;8.18;4.18;;;;;;;;;;6301767;22;20002;-42
2021/08/05 02:58:07;;;;;;;7.63;4.25;;;;;;;;;;6301964;22;20034;-41
2021/08/05 03:00:32;;;;;;;12.10;5.25;;;;;;;;;;6302006;22;20134;-41
2021/08/05 03:02:58;;;;;;;12.00;3.22;;;;;;;;;;6301586;22;20508;-41
2021/08/05 03:05:23;;;;;;;4.15;3.75;;;;;;;;;;6301980;22;20051;-40
2021/08/05 03:07:48;;;;;;;12.38;3.50;;;;;;;;;;6301635;22;20411;-42
2021/08/05 03:10:14;;;;;;;4.50;3.65;;;;;;;;;;6301525;22;20080;-42
2021/08/05 03:12:40;;;;;;;5.60;4.30;;;;;;;;;;6301835;22;19995;-47
2021/08/05 03:15:05;;;;;;;9.60;3.30;;;;;;;;;;6301214;22;20019;-44
2021/08/05 03:17:31;;;;;;;6.20;4.10;;;;;;;;;;6301951;22;20080;-42
2021/08/05 03:19:57;;;;;;;10.35;4.53;;;;;;;;;;6301857;22;20393;-44
2021/08/05 03:22:22;;;;;;;5.88;4.88;;;;;;;;;;6301132;22;20003;-44
2021/08/05 03:24:47;;;;;;;6.45;4.70;;;;;;;;;;6301529;22;20003;-42
2021/08/05 03:27:13;;;;;;;7.72;6.10;;;;;;;;;;6301127;22;20463;-43
2021/08/05 03:29:38;;;;;;;10.05;5.68;;;;;;;;;;6301180;22;20097;-45
2021/08/05 03:32:04;;;;;;;10.20;6.50;;;;;;;;;;6301672;22;20030;-41
2021/08/05 03:34:30;;;;;;;5.38;4.80;;;;;;;;;;6301145;22;20052;-42
2021/08/05 03:36:55;;;;;;;9.88;4.55;;;;;;;;;;6301482;22;19995;-45
2021/08/05 03:39:20;;;;;;;7.20;4.50;;;;;;;;;;6301513;22;20003;-42
2021/08/05 03:41:46;;;;;;;6.40;4.60;;;;;;;;;;6301790;22;20463;-43
2021/08/05 03:44:11;;;;;;;6.30;5.30;;;;;;;;;;6301691;22;20314;-43
2021/08/05 03:46:36;;;;;;;4.50;3.30;;;;;;;;;;6301157;22;20366;-46
2021/08/05 03:49:02;;;;;;;4.22;3.53;;;;;;;;;;6300931;22;19991;-47
2021/08/05 03:51:27;;;;;;;8.18;4.13;;;;;;;;;;6301747;22;20068;-44
2021/08/05 03:53:54;;;;;;;5.40;4.45;;;;;;;;;;6301578;22;20347;-42
2021/08/05 03:56:19;;;;;;;6.53;3.95;;;;;;;;;;6301441;22;20003;-42
2021/08/05 03:58:44;;;;;;;8.50;4.15;;;;;;;;;;6301226;22;20439;-41
2021/08/05 04:01:10;;;;;;;5.38;3.83;;;;;;;;;;6301341;22;19999;-42
2021/08/05 04:03:35;;;;;;;5.45;3.28;;;;;;;;;;6301623;22;20000;-42
2021/08/05 04:06:00;;;;;;;7.05;4.63;;;;;;;;;;6301341;22;20010;-40
2021/08/05 04:08:26;;;;;;;3.30;2.40;;;;;;;;;;6301411;22;20006;-43
2021/08/05 04:10:51;;;;;;;5.25;3.63;;;;;;;;;;6301156;22;20004;-43
2021/08/05 04:13:17;;;;;;;6.60;4.85;;;;;;;;;;6300825;22;20010;-45
2021/08/05 04:15:43;;;;;;;5.28;3.45;;;;;;;;;;6301266;22;19995;-47
2021/08/05 04:18:08;;;;;;;4.97;4.13;;;;;;;;;;6301248;22;20001;-44
2021/08/05 04:20:33;;;;;;;6.88;6.00;;;;;;;;;;6301032;22;20019;-40
2021/08/05 04:23:01;;;;;;;8.05;5.95;;;;;;;;;;6301356;22;20019;-42
2021/08/05 04:25:26;;;;;;;10.05;5.57;;;;;;;;;;6300620;22;20106;-43
2021/08/05 04:27:51;;;;;;;6.43;4.72;;;;;;;;;;6300824;22;19999;-41
2021/08/05 04:30:16;;;;;;;5.93;5.32;;;;;;;;;;6300893;22;20003;-46
2021/08/05 04:32:42;;;;;;;7.65;5.70;;;;;;;;;;6302172;22;20317;-42
2021/08/05 04:35:08;;;;;;;7.53;3.80;;;;;;;;;;6302843;22;19999;-46
2021/08/05 04:37:34;;;;;;;15.57;3.75;;;;;;;;;;6303026;22;20500;-43
2021/08/05 04:39:59;;;;;;;7.93;4.18;;;;;;;;;;6302683;22;19999;-42
2021/08/05 04:42:24;;;;;;;5.80;4.78;;;;;;;;;;6303375;22;20009;-42
2021/08/05 04:44:50;;;;;;;16.33;10.15;;;;;;;;;;6302778;22;20036;-41
2021/08/05 04:47:15;;;;;;;19.80;17.77;;;;;;;;;;6302955;22;20014;-43
2021/08/05 04:49:41;;;;;;;69.40;61.17;;;;;;;;;;6303232;22;20680;-41
2021/08/05 04:52:06;;;;;;;14.68;9.75;;;;;;;;;;6303051;22;20007;-45
2021/08/05 04:54:32;;;;;;;18.38;14.38;;;;;;;;;;6302605;22;20401;-45
2021/08/05 04:56:57;;;;;;;16.75;14.13;;;;;;;;;;6302950;22;20082;-42
2021/08/05 04:59:22;;;;;;;17.63;12.57;;;;;;;;;;6302644;22;20006;-42
2021/08/05 05:01:48;;;;;;;15.80;8.85;;;;;;;;;;6302708;22;20044;-41
2021/08/05 05:04:13;;;;;;;11.63;8.27;;;;;;;;;;6302519;22;20407;-42
2021/08/05 05:06:39;;;;;;;10.55;6.68;;;;;;;;;;6302763;22;20086;-42
2021/08/05 05:09:04;;;;;;;5.85;5.25;;;;;;;;;;6302820;22;20007;-41
2021/08/05 05:11:30;;;;;;;10.77;5.45;;;;;;;;;;6302956;22;20387;-43
2021/08/05 05:13:56;;;;;;;25.48;7.57;;;;;;;;;;6302976;22;19992;-42
2021/08/05 05:16:21;;;;;;;13.20;10.38;;;;;;;;;;6302459;22;20008;-43
2021/08/05 05:18:46;;;;;;;8.00;6.38;;;;;;;;;;6302664;22;20588;-42
2021/08/05 05:21:12;;;;;;;12.75;7.68;;;;;;;;;;6302003;22;20019;-43
2021/08/05 05:23:37;;;;;;;10.45;7.20;;;;;;;;;;6301682;22;20007;-44
2021/08/05 05:26:02;;;;;;;17.23;8.73;;;;;;;;;;6301636;22;19995;-41
2021/08/05 05:28:30;;;;;;;19.75;14.25;;;;;;;;;;6301332;22;19999;-46
2021/08/05 05:30:56;;;;;;;27.88;12.88;;;;;;;;;;6301186;22;20030;-45
2021/08/05 05:33:21;;;;;;;11.85;10.60;;;;;;;;;;6301794;22;19995;-41
2021/08/05 05:35:46;;;;;;;10.32;9.18;;;;;;;;;;6301883;22;20072;-42
2021/08/05 05:38:12;;;;;;;18.27;8.80;;;;;;;;;;6302603;22;20072;-43
2021/08/05 05:40:38;;;;;;;10.60;6.50;;;;;;;;;;6302719;22;20010;-42
2021/08/05 05:43:04;;;;;;;10.70;6.80;;;;;;;;;;6302654;22;20421;-42
2021/08/05 05:45:30;;;;;;;19.00;7.45;;;;;;;;;;6301729;22;20027;-41
2021/08/05 05:47:56;;;;;;;10.25;6.80;;;;;;;;;;6302638;22;19995;-41
2021/08/05 05:50:21;;;;;;;37.13;9.90;;;;;;;;;;6302338;22;20026;-42
2021/08/05 05:52:47;;;;;;;18.75;7.20;;;;;;;;;;6302430;22;19995;-42
2021/08/05 05:55:12;;;;;;;16.20;14.68;;;;;;;;;;6302503;22;19999;-42
2021/08/05 05:57:38;;;;;;;22.95;16.23;;;;;;;;;;6302326;22;20082;-42
2021/08/05 06:00:03;;;;;;;29.75;20.88;;;;;;;;;;6302547;22;20064;-41
2021/08/05 06:02:29;;;;;;;18.90;16.88;;;;;;;;;;6302074;22;20515;-41
2021/08/05 06:04:54;;;;;;;22.38;17.30;;;;;;;;;;6302549;22;20022;-41
2021/08/05 06:07:19;;;;;;;30.58;21.83;;;;;;;;;;6302724;22;19995;-41
2021/08/05 06:09:45;;;;;;;25.52;12.20;;;;;;;;;;6302104;22;20062;-41
2021/08/05 06:12:10;;;;;;;40.10;14.13;;;;;;;;;;6301918;22;19999;-41
2021/08/05 06:14:35;;;;;;;14.18;11.65;;;;;;;;;;6301788;22;20006;-44
2021/08/05 06:17:01;;;;;;;39.63;26.02;;;;;;;;;;6302129;22;20003;-41
2021/08/05 06:19:26;;;;;;;33.78;22.67;;;;;;;;;;6302387;22;19999;-41
2021/08/05 06:21:51;;;;;;;20.58;14.00;;;;;;;;;;6301940;22;20433;-40
2021/08/05 06:24:16;;;;;;;15.85;7.88;;;;;;;;;;6301876;22;20007;-41
2021/08/05 06:26:42;;;;;;;26.75;9.00;;;;;;;;;;6302115;22;20006;-41
2021/08/05 06:29:08;;;;;;;11.25;7.57;;;;;;;;;;6301699;22;20401;-41
2021/08/05 06:31:36;;;;;;;9.85;6.35;;;;;;;;;;6302056;22;20003;-42
2021/08/05 06:34:02;;;;;;;8.20;6.97;;;;;;;;;;6301548;22;19999;-41
2021/08/05 06:36:28;;;;;;;14.45;7.95;;;;;;;;;;6301657;22;19999;-42
2021/08/05 06:38:53;;;;;;;6.65;6.05;;;;;;;;;;6301853;22;20120;-43
2021/08/05 06:41:19;;;;;;;9.13;6.95;;;;;;;;;;6302026;22;20078;-42
2021/08/05 06:43:44;;;;;;;10.20;5.90;;;;;;;;;;6302085;22;20015;-43
2021/08/05 06:46:09;;;;;;;6.43;5.57;;;;;;;;;;6301965;22;19999;-43
2021/08/05 06:48:35;;;;;;;8.52;6.78;;;;;;;;;;6301318;22;20044;-43
2021/08/05 06:51:00;;;;;;;7.78;4.35;;;;;;;;;;6300677;22;20010;-41
2021/08/05 06:53:25;;;;;;;15.43;6.43;;;;;;;;;;6300564;22;20091;-42
2021/08/05 06:55:51;;;;;;;5.55;3.72;;;;;;;;;;6299836;22;20033;-42
2021/08/05 06:58:19;;;;;;;6.65;5.78;;;;;;;;;;6300700;22;20100;-43
2021/08/05 07:00:45;;;;;;;7.93;6.47;;;;;;;;;;6300837;22;20436;-49
2021/08/05 07:03:10;;;;;;;9.70;8.73;;;;;;;;;;6300523;22;20009;-44
2021/08/05 07:05:36;;;;;;;14.07;6.10;;;;;;;;;;6301313;22;20049;-48
2021/08/05 07:08:01;;;;;;;10.82;6.07;;;;;;;;;;6301191;22;20003;-43
2021/08/05 07:10:26;;;;;;;9.82;5.10;;;;;;;;;;6301640;22;20021;-49
2021/08/05 07:12:52;;;;;;;6.22;4.68;;;;;;;;;;6301618;22;20022;-47
2021/08/05 07:15:17;;;;;;;6.90;4.32;;;;;;;;;;6300379;22;20373;-51
2021/08/05 07:17:45;;;;;;;7.85;5.00;;;;;;;;;;6301404;22;20003;-48
2021/08/05 07:20:12;;;;;;;7.60;4.28;;;;;;;;;;6301240;22;20041;-49
2021/08/05 07:22:38;;;;;;;6.72;3.92;;;;;;;;;;6299374;22;20060;-52
2021/08/05 07:25:04;;;;;;;9.50;4.70;;;;;;;;;;6301236;22;19999;-47
2021/08/05 07:27:29;;;;;;;3.83;3.47;;;;;;;;;;6301192;22;19999;-50
2021/08/05 07:29:55;;;;;;;3.58;2.67;;;;;;;;;;6300984;22;19999;-49
2021/08/05 07:32:20;;;;;;;8.57;4.22;;;;;;;;;;6301297;22;20023;-46
2021/08/05 07:34:45;;;;;;;5.80;3.00;;;;;;;;;;6301485;22;20026;-46
2021/08/05 07:37:10;;;;;;;6.95;3.60;;;;;;;;;;6301620;22;19999;-49
2021/08/05 07:39:36;;;;;;;7.43;4.47;;;;;;;;;;6300797;22;20448;-49
2021/08/05 07:42:01;;;;;;;14.65;3.70;;;;;;;;;;6299910;22;20440;-46
2021/08/05 07:44:26;;;;;;;6.57;2.78;;;;;;;;;;6300199;22;20007;-49
2021/08/05 07:46:52;;;;;;;7.88;3.42;;;;;;;;;;6301478;22;19999;-46
2021/08/05 07:49:17;;;;;;;7.50;2.90;;;;;;;;;;6300610;22;20482;-47
2021/08/05 07:51:42;;;;;;;5.25;3.03;;;;;;;;;;6301431;22;19996;-49
2021/08/05 07:54:08;;;;;;;4.93;3.08;;;;;;;;;;6301153;22;20062;-48
2021/08/05 07:56:33;;;;;;;7.35;4.10;;;;;;;;;;6301183;22;19995;-48
2021/08/05 07:58:58;;;;;;;7.47;3.90;;;;;;;;;;6300818;22;20003;-48
2021/08/05 08:01:24;;;;;;;4.50;3.13;;;;;;;;;;6301191;22;19999;-45
2021/08/05 08:03:50;;;;;;;7.07;3.00;;;;;;;;;;6301317;22;20003;-47
2021/08/05 08:06:15;;;;;;;7.60;4.30;;;;;;;;;;6301346;22;20328;-50
2021/08/05 08:08:41;;;;;;;7.88;3.13;;;;;;;;;;6302630;22;19995;-50
2021/08/05 08:11:06;;;;;;;6.50;3.58;;;;;;;;;;6303143;22;20013;-49
2021/08/05 08:13:31;;;;;;;4.05;3.33;;;;;;;;;;6303149;22;20007;-47
2021/08/05 08:15:57;;;;;;;5.32;3.45;;;;;;;;;;6302834;22;20072;-49
2021/08/05 08:18:22;;;;;;;2.97;1.80;;;;;;;;;;6303091;22;19999;-47
2021/08/05 08:20:47;;;;;;;7.25;4.22;;;;;;;;;;6302605;22;20433;-47
2021/08/05 08:23:13;;;;;;;7.10;4.07;;;;;;;;;;6302420;22;20006;-47
2021/08/05 08:25:38;;;;;;;3.15;2.00;;;;;;;;;;6299882;22;20002;-49
2021/08/05 08:28:04;;;;;;;2.90;2.30;;;;;;;;;;6299539;22;19999;-46
2021/08/05 08:30:29;;;;;;;7.43;2.47;;;;;;;;;;6300527;22;20003;-49
2021/08/05 08:32:54;;;;;;;2.65;1.83;;;;;;;;;;6299700;22;19995;-50
2021/08/05 08:35:20;;;;;;;6.57;4.28;;;;;;;;;;6299504;22;20492;-51
2021/08/05 08:37:45;;;;;;;5.70;3.60;;;;;;;;;;6299601;22;20027;-51
2021/08/05 08:40:13;;;;;;;13.02;3.40;;;;;;;;;;6299876;22;20009;-49
2021/08/05 08:42:39;;;;;;;4.35;2.55;;;;;;;;;;6299715;22;19999;-51
2021/08/05 08:45:05;;;;;;;2.83;1.85;;;;;;;;;;6298945;22;20067;-51
2021/08/05 08:47:32;;;;;;;12.38;9.30;;;;;;;;;;6298905;22;20090;-48
2021/08/05 08:49:57;;;;;;;7.03;3.92;;;;;;;;;;6299930;22;20006;-51
2021/08/05 08:52:24;;;;;;;7.20;3.03;;;;;;;;;;6299067;22;19995;-52
2021/08/05 08:54:50;;;;;;;9.98;4.28;;;;;;;;;;6299329;22;20007;-51
2021/08/05 08:57:20;;;;;;;7.00;2.65;;;;;;;;;;6298761;22;20006;-49
2021/08/05 08:59:45;;;;;;;3.92;2.00;;;;;;;;;;6299042;22;20653;-48
2021/08/05 09:02:14;;;;;;;9.93;2.67;;;;;;;;;;6299603;22;20007;-47
2021/08/05 09:04:40;;;;;;;5.25;3.45;;;;;;;;;;6299698;22;20018;-50
2021/08/05 09:07:06;;;;;;;11.52;3.15;;;;;;;;;;6299967;22;19999;-50
2021/08/05 09:09:31;;;;;;;5.28;3.20;;;;;;;;;;6298983;22;20096;-49
2021/08/05 09:11:56;;;;;;;11.43;4.72;;;;;;;;;;6298840;22;19999;-49
2021/08/05 09:14:41;;;;;;;7.60;5.55;;;;;;;;;;6299197;22;20659;-48
2021/08/05 09:17:21;;;;;;;5.35;2.35;;;;;;;;;;6299249;22;19999;-49
2021/08/05 09:19:47;;;;;;;4.13;1.70;;;;;;;;;;6298669;22;20034;-50
2021/08/05 09:22:27;;;;;;;9.05;3.80;;;;;;;;;;6299251;22;20072;-48
2021/08/05 09:24:53;;;;;;;9.82;3.88;;;;;;;;;;6298486;22;19999;-49
2021/08/05 09:27:29;;;;;;;4.10;2.20;;;;;;;;;;6298751;22;19999;-46
2021/08/05 09:29:56;;;;;;;4.60;2.70;;;;;;;;;;6299343;22;20003;-46
2021/08/05 09:32:25;;;;;;;5.20;2.50;;;;;;;;;;6300493;22;20772;-48
2021/08/05 09:35:02;;;;;;;6.88;3.53;;;;;;;;;;6299542;22;20065;-47
2021/08/05 09:37:33;;;;;;;6.05;2.80;;;;;;;;;;6299274;22;19999;-50
2021/08/05 09:40:00;;;;;;;8.20;2.50;;;;;;;;;;6299366;22;20294;-48
2021/08/05 09:42:25;;;;;;;3.90;2.70;;;;;;;;;;6301382;22;19999;-48
2021/08/05 09:44:53;;;;;;;19.48;3.88;;;;;;;;;;6302531;22;20812;-45
2021/08/05 09:47:19;;;;;;;9.85;2.83;;;;;;;;;;6301942;22;20078;-46
2021/08/05 09:49:47;;;;;;;2.78;1.85;;;;;;;;;;6302023;22;19995;-47
2021/08/05 09:52:14;;;;;;;4.65;3.45;;;;;;;;;;6301906;22;19995;-50
2021/08/05 09:54:43;;;;;;;5.30;2.63;;;;;;;;;;6302202;22;20333;-45
2021/08/05 09:57:12;;;;;;;8.68;3.75;;;;;;;;;;6302321;22;20018;-48
2021/08/05 09:59:54;;;;;;;4.20;2.45;;;;;;;;;;6301926;22;20003;-50
2021/08/05 10:02:20;;;;;;;4.32;1.73;;;;;;;;;;6302105;22;20002;-45
2021/08/05 10:04:46;;;;;;;7.82;3.33;;;;;;;;;;6302204;22;20315;-48
2021/08/05 10:07:11;;;;;;;9.18;4.57;;;;;;;;;;6301939;22;20460;-50
2021/08/05 10:09:40;;;;;;;5.38;2.90;;;;;;;;;;6301779;22;20011;-47
2021/08/05 10:12:09;;;;;;;16.70;4.00;;;;;;;;;;6301398;22;20424;-48
2021/08/05 10:14:34;;;;;;;10.13;3.28;;;;;;;;;;6302310;22;19999;-46
2021/08/05 10:17:00;;;;;;;8.90;3.85;;;;;;;;;;6301535;22;20073;-49
2021/08/05 10:19:26;;;;;;;8.25;3.35;;;;;;;;;;6301325;22;20002;-47
2021/08/05 10:21:51;;;;;;;5.45;3.50;;;;;;;;;;6300296;22;20026;-48
2021/08/05 10:24:17;;;;;;;6.85;3.95;;;;;;;;;;6299288;22;19996;-49
2021/08/05 10:26:44;;;;;;;12.10;4.00;;;;;;;;;;6301838;22;20301;-53
2021/08/05 10:29:11;;;;;;;4.55;3.80;;;;;;;;;;6302089;22;19999;-52
2021/08/05 10:31:39;;;;;;;11.77;3.78;;;;;;;;;;6301753;22;19996;-51
2021/08/05 10:34:05;;;;;;;6.03;2.55;;;;;;;;;;6301988;22;20380;-49
2021/08/05 10:36:30;;;;;;;2.90;1.55;;;;;;;;;;6302258;22;20365;-48
2021/08/05 10:38:55;;;;;;;4.95;2.42;;;;;;;;;;6301164;22;20006;-48
2021/08/05 10:41:21;;;;;;;6.47;5.15;;;;;;;;;;6301862;22;20070;-47
2021/08/05 10:43:47;;;;;;;6.05;2.45;;;;;;;;;;6301756;22;20442;-47
2021/08/05 10:46:13;;;;;;;3.90;2.25;;;;;;;;;;6301713;22;20062;-52
2021/08/05 10:48:38;;;;;;;4.78;3.65;;;;;;;;;;6301218;22;19995;-49
2021/08/05 10:51:04;;;;;;;6.85;3.08;;;;;;;;;;6301278;22;20006;-50
2021/08/05 10:53:32;;;;;;;3.47;1.83;;;;;;;;;;6301168;22;20053;-48
2021/08/05 10:56:15;;;;;;;6.22;2.15;;;;;;;;;;6301437;22;20711;-52
2021/08/05 10:59:01;;;;;;;9.93;3.55;;;;;;;;;;6301705;22;20062;-50
2021/08/05 11:01:45;;;;;;;5.38;3.28;;;;;;;;;;6301662;22;20335;-50
2021/08/05 11:04:29;;;;;;;6.70;2.97;;;;;;;;;;6299509;22;20048;-51
2021/08/05 11:06:54;;;;;;;4.90;2.58;;;;;;;;;;6301760;22;19995;-49
2021/08/05 11:09:27;;;;;;;4.78;3.20;;;;;;;;;;6301426;22;20102;-47
2021/08/05 11:11:53;;;;;;;10.95;7.85;;;;;;;;;;6302085;22;20086;-51
2021/08/05 11:14:24;;;;;;;9.55;2.35;;;;;;;;;;6301744;22;20026;-47
2021/08/05 11:16:52;;;;;;;16.85;4.18;;;;;;;;;;6301210;22;19999;-53
2021/08/05 11:19:25;;;;;;;7.22;3.40;;;;;;;;;;6301151;22;20006;-54
2021/08/05 11:21:51;;;;;;;3.63;2.22;;;;;;;;;;6301447;22;20065;-50
2021/08/05 11:24:34;;;;;;;5.00;3.28;;;;;;;;;;6301387;22;20007;-47
2021/08/05 11:27:13;;;;;;;5.05;3.38;;;;;;;;;;6301575;22;20011;-50
2021/08/05 11:29:38;;;;;;;6.03;2.65;;;;;;;;;;6301385;22;20010;-51
2021/08/05 11:32:22;;;;;;;6.60;3.50;;;;;;;;;;6301410;22;20066;-49
2021/08/05 11:35:07;;;;;;;6.45;1.95;;;;;;;;;;6301103;22;19995;-47
2021/08/05 11:37:33;;;;;;;5.05;2.58;;;;;;;;;;6300721;22;20298;-53
2021/08/05 11:40:00;;;;;;;8.15;3.90;;;;;;;;;;6300920;22;20010;-52
2021/08/05 11:42:26;;;;;;;9.43;4.13;;;;;;;;;;6300590;22;20082;-48
2021/08/05 11:44:58;;;;;;;8.05;2.47;;;;;;;;;;6301414;22;20007;-50
2021/08/05 11:47:23;;;;;;;8.60;4.20;;;;;;;;;;6301267;22;20081;-48
2021/08/05 11:49:56;;;;;;;5.05;2.13;;;;;;;;;;6300854;22;20003;-46
2021/08/05 11:52:30;;;;;;;8.25;2.58;;;;;;;;;;6301339;22;20000;-47
2021/08/05 11:55:14;;;;;;;4.88;2.38;;;;;;;;;;6301226;22;20182;-46
2021/08/05 11:57:40;;;;;;;3.70;1.88;;;;;;;;;;6301081;22;19999;-46
2021/08/05 12:00:08;;;;;;;4.28;1.42;;;;;;;;;;6301299;22;20173;-51
2021/08/05 12:02:33;;;;;;;7.55;2.60;;;;;;;;;;6301061;22;19999;-50
2021/08/05 12:04:58;;;;;;;3.88;2.25;;;;;;;;;;6300614;22;20404;-47
2021/08/05 12:07:28;;;;;;;3.42;1.83;;;;;;;;;;6300647;22;20003;-44
2021/08/05 12:09:53;;;;;;;4.70;1.90;;;;;;;;;;6301125;22;19999;-49
2021/08/05 12:12:19;;;;;;;1.13;0.85;;;;;;;;;;6301205;22;19999;-46
2021/08/05 12:14:51;;;;;;;3.03;1.80;;;;;;;;;;6300969;22;20003;-46
2021/08/05 12:17:28;;;;;;;3.17;1.95;;;;;;;;;;6301199;22;20021;-50
2021/08/05 12:19:53;;;;;;;4.03;1.98;;;;;;;;;;6300938;22;20034;-44
2021/08/05 12:22:19;;;;;;;4.13;2.70;;;;;;;;;;6301126;22;20029;-46
2021/08/05 12:24:50;;;;;;;2.50;1.63;;;;;;;;;;6301431;22;20029;-45
2021/08/05 12:27:15;;;;;;;;;;;;;;;;;;6301833;22;20008;-43
2021/08/05 12:29:42;;;;;;;5.17;2.87;;;;;;;;;;6300798;22;20658;-45
2021/08/05 12:32:07;;;;;;;3.20;1.95;;;;;;;;;;6300413;22;20078;-47
2021/08/05 12:34:33;;;;;;;3.67;2.42;;;;;;;;;;6301107;22;20041;-45
2021/08/05 12:37:10;;;;;;;9.63;3.53;;;;;;;;;;6301387;22;19995;-44
2021/08/05 12:39:36;;;;;;;4.25;2.67;;;;;;;;;;6300643;22;20101;-44
2021/08/05 12:42:01;;;;;;;6.60;3.55;;;;;;;;;;6300864;22;19999;-49
2021/08/05 12:44:31;;;;;;;3.53;1.80;;;;;;;;;;6301266;22;20512;-47
2021/08/05 12:46:56;;;;;;;2.97;2.35;;;;;;;;;;6300959;22;20003;-45
2021/08/05 12:49:33;;;;;;;8.20;2.92;;;;;;;;;;6301168;22;20041;-45
2021/08/05 12:51:59;;;;;;;4.32;1.88;;;;;;;;;;6301248;22;19999;-45
2021/08/05 12:54:24;;;;;;;5.18;2.17;;;;;;;;;;6302310;22;20057;-48
2021/08/05 12:56:51;;;;;;;2.03;1.80;;;;;;;;;;6303233;22;19999;-48
2021/08/05 12:59:17;;;;;;;3.83;2.08;;;;;;;;;;6302675;22;20009;-44
2021/08/05 13:01:42;;;;;;;7.15;2.22;;;;;;;;;;6303115;22;20066;-46
2021/08/05 13:04:24;;;;;;;5.60;3.13;;;;;;;;;;6302349;22;20447;-49
2021/08/05 13:06:55;;;;;;;3.97;2.53;;;;;;;;;;6302758;22;20027;-48
2021/08/05 13:09:22;;;;;;;9.82;4.15;;;;;;;;;;6302534;22;20006;-50
2021/08/05 13:11:48;;;;;;;3.00;2.42;;;;;;;;;;6302555;22;20074;-47
2021/08/05 13:14:29;;;;;;;7.07;3.33;;;;;;;;;;6302253;22;20015;-47
2021/08/05 13:17:09;;;;;;;10.10;2.50;;;;;;;;;;6302970;22;19999;-43
2021/08/05 13:19:53;;;;;;;3.03;1.80;;;;;;;;;;6302837;22;20108;-48
2021/08/05 13:22:32;;;;;;;4.95;2.78;;;;;;;;;;6303105;22;20019;-44
2021/08/05 13:24:58;;;;;;;4.72;2.45;;;;;;;;;;6302719;22;20057;-44
2021/08/05 13:27:24;;;;;;;3.85;2.28;;;;;;;;;;6302159;22;19995;-48
2021/08/05 13:29:51;;;;;;;4.70;2.85;;;;;;;;;;6302361;22;20007;-44
2021/08/05 13:32:18;;;;;;;5.93;2.78;;;;;;;;;;6302424;22;20099;-49
2021/08/05 13:35:15;;;;;;;5.05;2.97;;;;;;;;;;6302990;22;20444;-46
2021/08/05 13:37:42;;;;;;;5.13;4.28;;;;;;;;;;6250641;22;20086;-49
2021/08/05 13:40:24;;;;;;;10.82;3.17;;;;;;;;;;6302051;22;20045;-53
2021/08/05 13:42:49;;;;;;;7.40;3.25;;;;;;;;;;6301879;22;20006;-52
2021/08/05 13:45:15;;;;;;;6.60;2.95;;;;;;;;;;6302308;22;20003;-50
2021/08/05 13:47:40;;;;;;;3.45;1.80;;;;;;;;;;6301893;22;20003;-50
2021/08/05 13:50:11;;;;;;;3.05;2.50;;;;;;;;;;6301992;22;20004;-50
2021/08/05 13:52:36;;;;;;;3.65;2.00;;;;;;;;;;6302171;22;20484;-47
2021/08/05 13:55:02;;;;;;;6.25;3.45;;;;;;;;;;6302078;22;20002;-47
2021/08/05 13:57:27;;;;;;;8.70;2.70;;;;;;;;;;6302274;22;20096;-50
2021/08/05 13:59:52;;;;;;;4.10;2.17;;;;;;;;;;6302217;22;20003;-50
2021/08/05 14:02:18;;;;;;;4.03;1.52;;;;;;;;;;6301749;22;20475;-43
2021/08/05 14:04:43;;;;;;;7.00;3.58;;;;;;;;;;6301923;22;20003;-46
2021/08/05 14:07:09;;;;;;;15.80;3.30;;;;;;;;;;6302370;22;19999;-48
2021/08/05 14:09:35;;;;;;;6.25;3.20;;;;;;;;;;6302017;22;20039;-48
2021/08/05 14:12:01;;;;;;;2.70;2.10;;;;;;;;;;6301873;22;20483;-43
2021/08/05 14:14:26;;;;;;;10.60;3.47;;;;;;;;;;6302498;22;20003;-50
2021/08/05 14:16:51;;;;;;;7.20;4.28;;;;;;;;;;6301864;22;19999;-49
2021/08/05 14:19:18;;;;;;;4.00;1.95;;;;;;;;;;6302008;22;20022;-47
2021/08/05 14:21:47;;;;;;;3.67;2.38;;;;;;;;;;6302118;22;20094;-44
2021/08/05 14:24:16;;;;;;;2.72;1.42;;;;;;;;;;6302055;22;19995;-50
2021/08/05 14:26:42;;;;;;;4.53;2.55;;;;;;;;;;6301917;22;20006;-45
2021/08/05 14:29:08;;;;;;;8.98;3.30;;;;;;;;;;6301463;22;20003;-47
2021/08/05 14:31:33;;;;;;;15.65;3.78;;;;;;;;;;6302238;22;20043;-44
2021/08/05 14:33:59;;;;;;;4.15;2.47;;;;;;;;;;6301623;22;20076;-44
2021/08/05 14:36:25;;;;;;;48.08;29.73;;;;;;;;;;6301901;22;19995;-43
2021/08/05 14:38:51;;;;;;;13.10;4.95;;;;;;;;;;6301652;22;20006;-50
2021/08/05 14:41:16;;;;;;;6.07;3.50;;;;;;;;;;6301969;22;20003;-46